Olmos, Texas
Current Conditions -  °F | °C
As of 8:35 AM on Thursday 30 Oct 2014 (Local Time) from KBEA Reporting Station
Moderate Fog Moderate Fog  
Wind Chill: 67°   Ceiling: 100
Heat Index: 67°   Visibility: 0.25mi
Dew Point: 67°   Wind: 6mph
Humidity: 100%   Direction: 60°ENE
Pressure: 30.1"   Gusts: NA
Location:  28.2201°N, 97.6762°W
Report Text: KBEA 301335Z AUTO 06005KT 1/4SM FG OVC001 20/20 A3010 RMK AO2 T01950195
Loading
Personal Weather Stations






























Interactive Weather Map
Tropical Storm Tracking
New forecast layout! Learn more

10-Day Weather Forecast

Advertisements
Track Severe Weather on mobile